createdAt,value
2018-04-30T00:01:05.593Z,992.42
2018-04-30T00:02:15.523Z,992.44
2018-04-30T00:03:24.923Z,992.4
2018-04-30T00:04:34.077Z,992.42
2018-04-30T00:05:43.246Z,992.4
2018-04-30T00:06:53.179Z,992.44
2018-04-30T00:08:02.337Z,992.44
2018-04-30T00:09:12.030Z,992.46
2018-04-30T00:10:21.451Z,992.47
2018-04-30T00:11:30.604Z,992.48
2018-04-30T00:12:40.033Z,992.47
2018-04-30T00:13:49.179Z,992.46
2018-04-30T00:14:58.844Z,992.52
2018-04-30T00:16:08.250Z,992.52
2018-04-30T00:17:18.033Z,992.51
2018-04-30T00:18:27.446Z,992.55
2018-04-30T00:19:36.604Z,992.5
2018-04-30T00:20:46.014Z,992.51
2018-04-30T00:21:54.908Z,992.49
2018-04-30T00:23:04.581Z,992.52
2018-04-30T00:24:14.241Z,992.56
2018-04-30T00:25:23.379Z,992.63
2018-04-30T00:26:32.532Z,992.58
2018-04-30T00:27:42.222Z,992.51
2018-04-30T00:28:51.891Z,992.41
2018-04-30T00:30:01.057Z,992.41
2018-04-30T00:31:10.214Z,992.5
2018-04-30T00:32:19.115Z,992.64
2018-04-30T00:33:28.303Z,992.75
2018-04-30T00:34:38.042Z,993
2018-04-30T00:35:47.479Z,993.25
2018-04-30T00:36:56.907Z,993.44
2018-04-30T00:38:06.840Z,993.49
2018-04-30T00:39:16.001Z,993.53
2018-04-30T00:40:25.463Z,993.68
2018-04-30T00:41:34.397Z,993.77
2018-04-30T00:42:44.070Z,993.85
2018-04-30T00:43:53.746Z,993.77
2018-04-30T00:45:02.914Z,993.43
2018-04-30T00:46:11.817Z,993.04
2018-04-30T00:47:20.977Z,992.76
2018-04-30T00:48:30.135Z,992.53
2018-04-30T00:49:39.805Z,992.47
2018-04-30T00:50:48.978Z,992.5
2018-04-30T00:51:58.721Z,992.53
2018-04-30T00:53:07.894Z,992.54
2018-04-30T00:54:17.289Z,992.49
2018-04-30T00:55:26.193Z,992.48
2018-04-30T00:56:35.872Z,992.53
2018-04-30T00:57:45.054Z,992.54
2018-04-30T00:58:54.724Z,992.53
2018-04-30T01:00:03.903Z,992.46
2018-04-30T01:01:13.078Z,992.46
2018-04-30T01:02:22.496Z,992.45
2018-04-30T01:03:31.978Z,992.44
2018-04-30T01:04:41.216Z,992.43
2018-04-30T01:05:50.649Z,992.46
2018-04-30T01:07:00.065Z,992.51
2018-04-30T01:08:09.490Z,992.5
2018-04-30T01:09:19.164Z,992.51
2018-04-30T01:10:28.595Z,992.56
2018-04-30T01:11:37.592Z,992.57
2018-04-30T01:12:47.015Z,992.62
2018-04-30T01:13:56.176Z,992.64
2018-04-30T01:15:05.870Z,992.59
2018-04-30T01:16:14.761Z,992.6
2018-04-30T01:17:24.440Z,992.57
2018-04-30T01:18:33.352Z,992.61
2018-04-30T01:19:42.276Z,992.58
2018-04-30T01:20:51.700Z,992.61
2018-04-30T01:22:00.588Z,992.66
2018-04-30T01:23:10.018Z,992.68
2018-04-30T01:24:19.707Z,992.66
2018-04-30T01:25:29.110Z,992.64
2018-04-30T01:26:38.307Z,992.67
2018-04-30T01:27:48.252Z,992.64
2018-04-30T01:28:57.662Z,992.65
2018-04-30T01:30:07.093Z,992.6
2018-04-30T01:31:16.239Z,992.61
2018-04-30T01:32:26.199Z,992.58
2018-04-30T01:33:35.913Z,992.57
2018-04-30T01:34:45.881Z,992.6
2018-04-30T01:35:55.556Z,992.62
2018-04-30T01:37:04.965Z,992.68
2018-04-30T01:38:13.874Z,992.69
2018-04-30T01:39:22.771Z,992.71
2018-04-30T01:40:32.451Z,992.7
2018-04-30T01:41:41.876Z,992.63
2018-04-30T01:42:51.313Z,992.67
2018-04-30T01:44:00.774Z,992.68
2018-04-30T01:45:10.231Z,992.7
2018-04-30T01:46:20.180Z,992.75
2018-04-30T01:47:29.332Z,992.73
2018-04-30T01:48:38.769Z,992.73
2018-04-30T01:49:48.171Z,992.7
2018-04-30T01:50:57.842Z,992.66
2018-04-30T01:52:06.993Z,992.68
2018-04-30T01:53:16.142Z,992.72
2018-04-30T01:54:25.861Z,992.68
2018-04-30T01:55:35.084Z,992.7
2018-04-30T01:56:44.491Z,992.7
2018-04-30T01:57:54.155Z,992.71
2018-04-30T01:59:04.100Z,992.7
2018-04-30T02:00:13.274Z,992.66
2018-04-30T02:01:22.682Z,992.66
2018-04-30T02:02:32.104Z,992.72
2018-04-30T02:03:41.533Z,992.73
2018-04-30T02:04:50.949Z,992.75
2018-04-30T02:06:00.879Z,992.77
2018-04-30T02:07:09.536Z,992.72
2018-04-30T02:08:18.726Z,992.63
2018-04-30T02:09:28.149Z,992.59
2018-04-30T02:10:37.814Z,992.61
2018-04-30T02:11:47.481Z,992.63
2018-04-30T02:12:56.646Z,992.61
2018-04-30T02:14:05.836Z,992.64
2018-04-30T02:15:15.329Z,992.64
2018-04-30T02:16:23.951Z,992.63
2018-04-30T02:17:33.648Z,992.63
2018-04-30T02:18:42.821Z,992.67
2018-04-30T02:19:51.715Z,992.66
2018-04-30T02:21:01.128Z,992.64
2018-04-30T02:22:10.795Z,992.61
2018-04-30T02:23:20.223Z,992.6
2018-04-30T02:24:29.621Z,992.57
2018-04-30T02:25:38.778Z,992.53
2018-04-30T02:26:48.202Z,992.53
2018-04-30T02:27:57.873Z,992.51
2018-04-30T02:29:07.535Z,992.51
2018-04-30T02:30:17.202Z,992.52
2018-04-30T02:31:27.139Z,992.45
2018-04-30T02:32:36.827Z,992.43
2018-04-30T02:33:46.267Z,992.33
2018-04-30T02:34:55.945Z,992.22
2018-04-30T02:36:05.609Z,992.22
2018-04-30T02:37:14.523Z,992.19
2018-04-30T02:38:24.488Z,992.25
2018-04-30T02:39:34.475Z,992.29
2018-04-30T02:40:44.161Z,992.27
2018-04-30T02:41:53.576Z,992.26
2018-04-30T02:43:02.993Z,992.33
2018-04-30T02:44:12.933Z,992.36
2018-04-30T02:45:22.899Z,992.31
2018-04-30T02:46:32.588Z,992.35
2018-04-30T02:47:42.023Z,992.38
2018-04-30T02:48:51.707Z,992.4
2018-04-30T02:50:01.181Z,992.39
2018-04-30T02:51:11.137Z,992.42
2018-04-30T02:52:20.897Z,992.46
2018-04-30T02:53:30.315Z,992.52
2018-04-30T02:54:40.006Z,992.5
2018-04-30T02:55:49.714Z,992.51
2018-04-30T02:56:59.149Z,992.49
2018-04-30T02:58:08.622Z,992.49
2018-04-30T02:59:18.067Z,992.5
2018-04-30T03:00:27.531Z,992.52
2018-04-30T03:01:36.958Z,992.54
2018-04-30T03:02:46.630Z,992.56
2018-04-30T03:03:55.801Z,992.61
2018-04-30T03:05:05.462Z,992.6
2018-04-30T03:06:15.162Z,992.54
2018-04-30T03:07:24.824Z,992.59
2018-04-30T03:08:34.245Z,992.57
2018-04-30T03:09:44.007Z,992.58
2018-04-30T03:10:53.683Z,992.64
2018-04-30T03:12:03.128Z,992.65
2018-04-30T03:13:12.821Z,992.66
2018-04-30T03:14:22.759Z,992.66
2018-04-30T03:15:32.453Z,992.62
2018-04-30T03:16:41.858Z,992.65
2018-04-30T03:17:51.534Z,992.63
2018-04-30T03:19:00.955Z,992.66
2018-04-30T03:20:10.108Z,992.67
2018-04-30T03:21:19.530Z,992.66
2018-04-30T03:22:28.414Z,992.68
2018-04-30T03:23:37.317Z,992.73
2018-04-30T03:24:46.768Z,992.8
2018-04-30T03:25:55.668Z,992.83
2018-04-30T03:27:05.350Z,992.92
2018-04-30T03:28:14.798Z,992.9
2018-04-30T03:29:24.194Z,992.91
2018-04-30T03:30:33.614Z,992.94
2018-04-30T03:31:43.577Z,992.89
2018-04-30T03:32:53.537Z,992.85
2018-04-30T03:34:02.696Z,992.84
2018-04-30T03:35:12.381Z,992.84
2018-04-30T03:36:22.063Z,992.83
2018-04-30T03:37:31.261Z,992.86
2018-04-30T03:38:40.443Z,992.87
2018-04-30T03:39:49.614Z,992.88
2018-04-30T03:40:58.777Z,992.92
2018-04-30T03:42:08.456Z,992.94
2018-04-30T03:43:17.869Z,992.96
2018-04-30T03:44:27.349Z,992.94
2018-04-30T03:45:36.779Z,992.92
2018-04-30T03:46:45.977Z,992.98
2018-04-30T03:47:55.635Z,992.96
2018-04-30T03:49:05.054Z,992.99
2018-04-30T03:50:14.236Z,992.95
2018-04-30T03:51:23.396Z,992.98
2018-04-30T03:52:32.554Z,993.02
2018-04-30T03:53:42.232Z,993.07
2018-04-30T03:54:51.657Z,993.08
2018-04-30T03:56:01.064Z,993.09
2018-04-30T03:57:10.215Z,993.13
2018-04-30T03:58:19.356Z,993.13
2018-04-30T03:59:28.255Z,993.19
2018-04-30T04:00:37.927Z,993.21
2018-04-30T04:01:47.343Z,993.22
2018-04-30T04:02:56.305Z,993.22
2018-04-30T04:04:05.258Z,993.29
2018-04-30T04:05:14.752Z,993.23
2018-04-30T04:06:23.918Z,993.22
2018-04-30T04:07:33.849Z,993.25
2018-04-30T04:08:42.993Z,993.28
2018-04-30T04:09:52.986Z,993.28
2018-04-30T04:11:02.397Z,993.42
2018-04-30T04:12:12.060Z,993.37
2018-04-30T04:13:21.211Z,993.45
2018-04-30T04:14:30.110Z,993.49
2018-04-30T04:15:39.532Z,993.44
2018-04-30T04:16:48.960Z,993.46
2018-04-30T04:17:58.667Z,993.48
2018-04-30T04:19:08.141Z,993.53
2018-04-30T04:20:17.296Z,993.56
2018-04-30T04:21:27.563Z,993.58
2018-04-30T04:22:36.983Z,993.56
2018-04-30T04:23:46.142Z,993.56
2018-04-30T04:24:55.314Z,993.55
2018-04-30T04:26:05.242Z,993.53
2018-04-30T04:27:14.647Z,993.54
2018-04-30T04:28:23.864Z,993.57
2018-04-30T04:29:33.527Z,993.59
2018-04-30T04:30:43.201Z,993.59
2018-04-30T04:31:52.627Z,993.56
2018-04-30T04:33:02.056Z,993.64
2018-04-30T04:34:11.220Z,993.65
2018-04-30T04:35:20.640Z,993.69
2018-04-30T04:36:29.797Z,993.7
2018-04-30T04:37:39.212Z,993.67
2018-04-30T04:38:49.145Z,993.69
2018-04-30T04:39:58.046Z,993.63
2018-04-30T04:41:07.728Z,993.63
2018-04-30T04:42:17.129Z,993.56
2018-04-30T04:43:26.543Z,993.55
2018-04-30T04:44:35.448Z,993.56
2018-04-30T04:45:44.605Z,993.56
2018-04-30T04:46:53.783Z,993.59
2018-04-30T04:48:03.450Z,993.66
2018-04-30T04:49:12.860Z,993.61
2018-04-30T04:50:22.046Z,993.67
2018-04-30T04:51:31.472Z,993.68
2018-04-30T04:52:40.641Z,993.74
2018-04-30T04:53:50.566Z,993.76
2018-04-30T04:55:00.475Z,993.82
2018-04-30T04:56:09.877Z,993.84
2018-04-30T04:57:19.550Z,993.83
2018-04-30T04:58:28.693Z,993.84
2018-04-30T04:59:38.367Z,993.81
2018-04-30T05:00:48.022Z,993.82
2018-04-30T05:01:57.176Z,993.79
2018-04-30T05:03:06.323Z,993.79
2018-04-30T05:04:15.728Z,993.81
2018-04-30T05:05:25.651Z,993.83
2018-04-30T05:06:35.075Z,993.84
2018-04-30T05:07:44.485Z,993.85
2018-04-30T05:08:54.209Z,993.83
2018-04-30T05:10:03.366Z,993.82
2018-04-30T05:11:13.034Z,993.87
2018-04-30T05:12:22.731Z,993.88
2018-04-30T05:13:31.901Z,993.91
2018-04-30T05:14:41.088Z,993.97
2018-04-30T05:15:50.260Z,994.04
2018-04-30T05:16:59.199Z,994.07
2018-04-30T05:18:09.137Z,994.09
2018-04-30T05:19:18.552Z,994.05
2018-04-30T05:20:27.722Z,994.05
2018-04-30T05:21:37.151Z,994.08
2018-04-30T05:22:46.327Z,994.1
2018-04-30T05:23:55.747Z,994.14
2018-04-30T05:25:04.663Z,994.13
2018-04-30T05:26:14.338Z,994.14
2018-04-30T05:27:23.763Z,994.14
2018-04-30T05:28:33.248Z,994.15
2018-04-30T05:29:42.694Z,994.15
2018-04-30T05:30:52.114Z,994.13
2018-04-30T05:32:01.536Z,994.16
2018-04-30T05:33:10.433Z,994.12
2018-04-30T05:34:19.322Z,994.12
2018-04-30T05:35:28.227Z,994.16
2018-04-30T05:36:37.462Z,994.18
2018-04-30T05:37:46.349Z,994.22
2018-04-30T05:38:55.511Z,994.24
2018-04-30T05:40:04.670Z,994.29
2018-04-30T05:41:14.112Z,994.19
2018-04-30T05:42:23.779Z,994.2
2018-04-30T05:43:33.248Z,994.2
2018-04-30T05:44:42.675Z,994.14
2018-04-30T05:45:52.110Z,994.12
2018-04-30T05:47:02.044Z,994.07
2018-04-30T05:48:11.216Z,994.07
2018-04-30T05:49:20.118Z,994.09
2018-04-30T05:50:29.834Z,994.14
2018-04-30T05:51:39.010Z,994.17
2018-04-30T05:52:48.643Z,994.19
2018-04-30T05:53:58.327Z,994.26
2018-04-30T05:55:08.113Z,994.34
2018-04-30T05:56:17.640Z,994.37
2018-04-30T05:57:27.077Z,994.45
2018-04-30T05:58:35.974Z,994.48
2018-04-30T05:59:45.928Z,994.49
2018-04-30T06:00:55.097Z,994.52
2018-04-30T06:02:04.522Z,994.54
2018-04-30T06:03:13.430Z,994.5
2018-04-30T06:04:22.855Z,994.58
2018-04-30T06:05:32.577Z,994.55
2018-04-30T06:06:41.732Z,994.6
2018-04-30T06:07:51.337Z,994.66
2018-04-30T06:09:00.492Z,994.64
2018-04-30T06:10:10.175Z,994.67
2018-04-30T06:11:19.337Z,994.73
2018-04-30T06:12:28.493Z,994.73
2018-04-30T06:13:38.154Z,994.74
2018-04-30T06:14:47.835Z,994.76
2018-04-30T06:15:56.724Z,994.77
2018-04-30T06:17:06.138Z,994.74
2018-04-30T06:18:15.305Z,994.75
2018-04-30T06:19:25.243Z,994.72
2018-04-30T06:20:34.404Z,994.73
2018-04-30T06:21:44.341Z,994.68
2018-04-30T06:22:53.761Z,994.69
2018-04-30T06:24:02.926Z,994.67
2018-04-30T06:25:12.328Z,994.65
2018-04-30T06:26:21.233Z,994.64
2018-04-30T06:27:30.415Z,994.7
2018-04-30T06:28:39.600Z,994.72
2018-04-30T06:29:49.280Z,994.67
2018-04-30T06:30:58.979Z,994.76
2018-04-30T06:32:08.410Z,994.73
2018-04-30T06:33:17.642Z,994.76
2018-04-30T06:34:27.326Z,994.79
2018-04-30T06:35:36.270Z,994.76
2018-04-30T06:36:46.057Z,994.8
2018-04-30T06:37:55.476Z,994.82
2018-04-30T06:39:04.687Z,994.77
2018-04-30T06:40:13.840Z,994.77
2018-04-30T06:41:23.273Z,994.8
2018-04-30T06:42:32.200Z,994.79
2018-04-30T06:43:41.633Z,994.87
2018-04-30T06:44:51.392Z,994.88
2018-04-30T06:46:00.065Z,994.89
2018-04-30T06:47:09.246Z,994.91
2018-04-30T06:48:18.964Z,994.93
2018-04-30T06:49:28.395Z,994.95
2018-04-30T06:50:37.564Z,994.9
2018-04-30T06:51:46.755Z,994.96
2018-04-30T06:52:56.435Z,994.91
2018-04-30T06:54:05.851Z,994.89
2018-04-30T06:55:15.277Z,994.89
2018-04-30T06:56:24.964Z,994.87
2018-04-30T06:57:34.129Z,994.86
2018-04-30T06:58:43.803Z,994.86
2018-04-30T06:59:53.211Z,994.92
2018-04-30T07:01:02.366Z,994.98
2018-04-30T07:02:12.039Z,995.05
2018-04-30T07:03:20.920Z,995.07
2018-04-30T07:04:30.367Z,995.1
2018-04-30T07:05:39.765Z,995.09
2018-04-30T07:06:49.012Z,995.17
2018-04-30T07:07:58.179Z,995.25
2018-04-30T07:09:07.634Z,995.23
2018-04-30T07:10:17.835Z,995.29
2018-04-30T07:11:27.262Z,995.28
2018-04-30T07:12:36.220Z,995.3
2018-04-30T07:13:45.395Z,995.32
2018-04-30T07:14:54.816Z,995.31
2018-04-30T07:16:04.235Z,995.29
2018-04-30T07:17:13.678Z,995.36
2018-04-30T07:18:23.138Z,995.32
2018-04-30T07:19:32.289Z,995.29
2018-04-30T07:20:41.462Z,995.32
2018-04-30T07:21:50.889Z,995.3
2018-04-30T07:23:00.048Z,995.35
2018-04-30T07:24:09.481Z,995.35
2018-04-30T07:25:18.394Z,995.31
2018-04-30T07:26:27.830Z,995.34
2018-04-30T07:27:37.589Z,995.34
2018-04-30T07:28:48.253Z,995.31
2018-04-30T07:29:57.695Z,995.24
2018-04-30T07:31:07.115Z,995.26
2018-04-30T07:32:16.026Z,995.34
2018-04-30T07:33:25.174Z,995.42
2018-04-30T07:34:34.907Z,995.34
2018-04-30T07:35:44.340Z,995.31
2018-04-30T07:36:53.511Z,995.28
2018-04-30T07:38:03.453Z,995.19
2018-04-30T07:39:12.930Z,995.13
2018-04-30T07:40:22.050Z,995.15
2018-04-30T07:41:31.231Z,995.15
2018-04-30T07:42:41.170Z,995.15
2018-04-30T07:43:50.598Z,995.16
2018-04-30T07:44:59.785Z,995.15
2018-04-30T07:46:09.477Z,995.19
2018-04-30T07:47:18.388Z,995.2
2018-04-30T07:48:27.806Z,995.21
2018-04-30T07:49:37.234Z,995.27
2018-04-30T07:50:46.667Z,995.31
2018-04-30T07:51:56.622Z,995.42
2018-04-30T07:53:06.074Z,995.4
2018-04-30T07:54:16.013Z,995.39
2018-04-30T07:55:24.683Z,995.42
2018-04-30T07:56:34.141Z,995.46
2018-04-30T07:57:43.644Z,995.49
2018-04-30T07:58:52.795Z,995.45
2018-04-30T08:00:02.195Z,995.47
2018-04-30T08:01:11.602Z,995.47
2018-04-30T08:02:21.545Z,995.48
2018-04-30T08:03:31.339Z,995.52
2018-04-30T08:04:41.022Z,995.44
2018-04-30T08:05:50.455Z,995.43
2018-04-30T08:06:59.636Z,995.41
2018-04-30T08:08:08.805Z,995.37
2018-04-30T08:09:17.992Z,995.35
2018-04-30T08:10:27.704Z,995.33
2018-04-30T08:11:36.866Z,995.31
2018-04-30T08:12:46.026Z,995.37
2018-04-30T08:13:55.732Z,995.48
2018-04-30T08:15:05.143Z,995.49
2018-04-30T08:16:14.347Z,995.54
2018-04-30T08:17:24.038Z,995.52
2018-04-30T08:18:33.719Z,995.51
2018-04-30T08:19:42.923Z,995.55
2018-04-30T08:20:52.623Z,995.54
2018-04-30T08:22:02.055Z,995.56
2018-04-30T08:23:11.773Z,995.6
2018-04-30T08:24:20.687Z,995.62
2018-04-30T08:25:30.411Z,995.63
2018-04-30T08:26:39.629Z,995.63
2018-04-30T08:27:49.159Z,995.63
2018-04-30T08:28:58.845Z,995.6
2018-04-30T08:30:08.554Z,995.56
2018-04-30T08:31:17.189Z,995.61
2018-04-30T08:32:26.371Z,995.67
2018-04-30T08:33:35.558Z,995.7
2018-04-30T08:34:44.995Z,995.71
2018-04-30T08:35:54.424Z,995.77
2018-04-30T08:37:03.394Z,995.82
2018-04-30T08:38:12.558Z,995.84
2018-04-30T08:39:22.509Z,995.83
2018-04-30T08:40:31.432Z,995.88
2018-04-30T08:41:41.142Z,995.9
2018-04-30T08:42:50.903Z,995.92
2018-04-30T08:44:00.585Z,995.89
2018-04-30T08:45:09.817Z,995.89
2018-04-30T08:46:19.571Z,995.94
2018-04-30T08:47:28.998Z,995.97
2018-04-30T08:48:38.418Z,995.96
2018-04-30T08:49:47.571Z,996
2018-04-30T08:50:56.239Z,995.98
2018-04-30T08:52:06.197Z,996.04
2018-04-30T08:53:15.252Z,996.01
2018-04-30T08:54:24.408Z,996.04
2018-04-30T08:55:33.821Z,996.04
2018-04-30T08:56:43.499Z,996.05
2018-04-30T08:57:53.219Z,996.03
2018-04-30T08:59:02.646Z,996.04
2018-04-30T09:00:11.809Z,996
2018-04-30T09:01:21.753Z,995.99
2018-04-30T09:02:30.668Z,996.03
2018-04-30T09:03:39.810Z,996.04
2018-04-30T09:04:48.704Z,996.06
2018-04-30T09:05:58.120Z,996.04
2018-04-30T09:07:07.333Z,996.03
2018-04-30T09:08:16.529Z,995.94
2018-04-30T09:09:26.482Z,996.01
2018-04-30T09:10:36.023Z,995.97
2018-04-30T09:11:45.738Z,995.99
2018-04-30T09:12:55.417Z,996
2018-04-30T09:14:04.839Z,995.97
2018-04-30T09:15:14.279Z,995.98
2018-04-30T09:16:23.443Z,996.01
2018-04-30T09:17:33.128Z,995.98
2018-04-30T09:18:42.035Z,995.96
2018-04-30T09:19:51.196Z,995.99
2018-04-30T09:21:00.366Z,996.04
2018-04-30T09:22:09.257Z,995.98
2018-04-30T09:23:18.686Z,996
2018-04-30T09:24:28.107Z,996.02
2018-04-30T09:25:37.260Z,996.05
2018-04-30T09:26:46.965Z,996.06
2018-04-30T09:27:56.427Z,996.06
2018-04-30T09:29:06.312Z,996.03
2018-04-30T09:30:16.169Z,996.05
2018-04-30T09:31:25.597Z,996.09
2018-04-30T09:32:35.007Z,996.03
2018-04-30T09:33:44.450Z,996.1
2018-04-30T09:34:54.223Z,996.1
2018-04-30T09:36:03.717Z,996.08
2018-04-30T09:37:13.146Z,996.11
2018-04-30T09:38:22.314Z,996.09
2018-04-30T09:39:32.024Z,996.06
2018-04-30T09:40:41.212Z,996.08
2018-04-30T09:41:50.908Z,996.07
2018-04-30T09:43:00.095Z,996.05
2018-04-30T09:44:09.517Z,996.07
2018-04-30T09:45:19.218Z,996.08
2018-04-30T09:46:28.646Z,996.13
2018-04-30T09:47:37.798Z,996.15
2018-04-30T09:48:46.967Z,996.17
2018-04-30T09:49:56.670Z,996.2
2018-04-30T09:51:05.857Z,996.18
2018-04-30T09:52:15.038Z,996.21
2018-04-30T09:53:23.957Z,996.24
2018-04-30T09:54:33.405Z,996.27
2018-04-30T09:55:42.558Z,996.31
2018-04-30T09:56:51.724Z,996.28
2018-04-30T09:58:01.218Z,996.33
2018-04-30T09:59:10.970Z,996.29
2018-04-30T10:00:20.143Z,996.31
2018-04-30T10:01:29.311Z,996.29
2018-04-30T10:02:38.720Z,996.3
2018-04-30T10:03:47.875Z,996.31
2018-04-30T10:04:57.040Z,996.22
2018-04-30T10:06:06.488Z,996.32
2018-04-30T10:07:15.674Z,996.22
2018-04-30T10:08:26.050Z,996.18
2018-04-30T10:09:35.733Z,996.2
2018-04-30T10:10:45.169Z,996.2
2018-04-30T10:11:54.591Z,996.13
2018-04-30T10:13:04.020Z,996.11
2018-04-30T10:14:13.187Z,996.18
2018-04-30T10:15:22.362Z,996.1
2018-04-30T10:16:31.791Z,996.14
2018-04-30T10:17:41.871Z,996.16
2018-04-30T10:18:52.140Z,996.1
2018-04-30T10:20:01.319Z,996.07
2018-04-30T10:21:10.993Z,996.08
2018-04-30T10:22:20.689Z,996.07
2018-04-30T10:23:30.147Z,996.1
2018-04-30T10:24:39.956Z,996.13
2018-04-30T10:25:48.925Z,996.08
2018-04-30T10:26:58.645Z,996.09
2018-04-30T10:28:08.387Z,996.06
2018-04-30T10:29:17.606Z,996.09
2018-04-30T10:30:27.146Z,996.01
2018-04-30T10:31:36.671Z,996.15
2018-04-30T10:32:47.019Z,996.13
2018-04-30T10:33:57.134Z,996.16
2018-04-30T10:35:06.332Z,996.16
2018-04-30T10:36:16.069Z,996.16
2018-04-30T10:37:25.268Z,996.11
2018-04-30T10:38:34.985Z,996.12
2018-04-30T10:39:44.444Z,996.09
2018-04-30T10:40:54.190Z,996.15
2018-04-30T10:42:03.360Z,996.08
2018-04-30T10:43:12.530Z,996.13
2018-04-30T10:44:21.980Z,996.14
2018-04-30T10:45:31.178Z,996.09
2018-04-30T10:46:40.705Z,996.04
2018-04-30T10:47:49.910Z,996.11
2018-04-30T10:48:59.142Z,996.14
2018-04-30T10:50:08.362Z,996.18
2018-04-30T10:51:17.300Z,996.18
2018-04-30T10:52:26.755Z,996.18
2018-04-30T10:53:36.212Z,996.15
2018-04-30T10:54:45.800Z,996.16
2018-04-30T10:55:55.725Z,996.13
2018-04-30T10:57:05.287Z,996.2
2018-04-30T10:58:15.013Z,996.16
2018-04-30T10:59:24.505Z,996.12
2018-04-30T11:00:33.765Z,996.1
2018-04-30T11:01:43.227Z,996.05
2018-04-30T11:02:52.671Z,996.14
2018-04-30T11:04:02.116Z,996.09
2018-04-30T11:05:11.847Z,996.15
2018-04-30T11:06:21.094Z,996.08
2018-04-30T11:07:30.286Z,996.17
2018-04-30T11:08:39.450Z,996.16
2018-04-30T11:09:49.141Z,996.19
2018-04-30T11:10:58.331Z,996.09
2018-04-30T11:12:07.835Z,996.16
2018-04-30T11:13:17.011Z,996.15
2018-04-30T11:14:26.430Z,996.14
2018-04-30T11:15:35.603Z,996.21
2018-04-30T11:16:45.560Z,996.22
2018-04-30T11:17:54.469Z,996.19
2018-04-30T11:19:03.362Z,996.23
2018-04-30T11:20:12.252Z,996.15
2018-04-30T11:21:21.655Z,996.18
2018-04-30T11:22:31.103Z,996.24
2018-04-30T11:23:40.267Z,996.32
2018-04-30T11:24:49.717Z,996.2
2018-04-30T11:25:59.694Z,996.18
2018-04-30T11:27:08.894Z,996.22
2018-04-30T11:28:18.373Z,996.13
2018-04-30T11:29:28.347Z,996.23
2018-04-30T11:30:37.795Z,996.2
2018-04-30T11:31:46.467Z,996.26
2018-04-30T11:32:55.951Z,996.23
2018-04-30T11:34:05.441Z,996.23
2018-04-30T11:35:15.500Z,996.24
2018-04-30T11:36:24.901Z,996.24
2018-04-30T11:37:34.121Z,996.18
2018-04-30T11:38:43.929Z,996.19
2018-04-30T11:39:53.419Z,996.15
2018-04-30T11:41:02.957Z,996.14
2018-04-30T11:42:12.503Z,996.16
2018-04-30T11:43:22.289Z,996.09
2018-04-30T11:44:31.531Z,996.08
2018-04-30T11:45:41.063Z,996.07
2018-04-30T11:46:50.855Z,996.01
2018-04-30T11:48:00.650Z,996.11
2018-04-30T11:49:09.888Z,996.2
2018-04-30T11:50:19.143Z,996.19
2018-04-30T11:51:28.663Z,996.13
2018-04-30T11:52:37.892Z,996.19
2018-04-30T11:53:46.838Z,996.15
2018-04-30T11:54:56.377Z,996.18
2018-04-30T11:56:06.436Z,996.17
2018-04-30T11:57:15.659Z,996.23
2018-04-30T11:58:24.632Z,996.25
2018-04-30T11:59:34.774Z,996.36
2018-04-30T12:00:43.735Z,996.32
2018-04-30T12:01:53.464Z,996.3
2018-04-30T12:03:02.690Z,996.38
2018-04-30T12:04:11.358Z,996.32
2018-04-30T12:05:20.857Z,996.58
2018-04-30T12:06:30.619Z,996.48
2018-04-30T12:07:40.131Z,996.56
2018-04-30T12:08:48.808Z,996.5
2018-04-30T12:09:58.021Z,996.52
2018-04-30T12:11:08.557Z,996.51
2018-04-30T12:12:19.606Z,996.51
2018-04-30T12:13:29.477Z,996.55
2018-04-30T12:14:38.692Z,996.55
2018-04-30T12:15:48.483Z,996.47
2018-04-30T12:16:57.460Z,996.56
2018-04-30T12:18:06.761Z,996.58
2018-04-30T12:19:17.046Z,996.54
2018-04-30T12:20:26.804Z,996.61
2018-04-30T12:21:36.598Z,996.69
2018-04-30T12:22:45.895Z,996.66
2018-04-30T12:23:55.107Z,996.72
2018-04-30T12:25:04.889Z,996.73
2018-04-30T12:26:14.411Z,996.74
2018-04-30T12:27:23.089Z,996.79
2018-04-30T12:28:32.568Z,996.68
2018-04-30T12:29:42.355Z,996.74
2018-04-30T12:30:52.600Z,996.74
2018-04-30T12:32:02.099Z,996.7
2018-04-30T12:33:11.644Z,996.75
2018-04-30T12:34:21.242Z,996.67
2018-04-30T12:35:31.162Z,996.68
2018-04-30T12:36:40.124Z,996.75
2018-04-30T12:37:49.608Z,996.79
2018-04-30T12:38:58.828Z,996.7
2018-04-30T12:40:07.998Z,996.75
2018-04-30T12:41:17.747Z,996.78
2018-04-30T12:42:26.413Z,996.8
2018-04-30T12:43:35.407Z,996.83
2018-04-30T12:44:45.100Z,996.75
2018-04-30T12:45:55.259Z,996.7
2018-04-30T12:47:04.725Z,996.77
2018-04-30T12:48:13.664Z,996.7
2018-04-30T12:49:24.018Z,996.75
2018-04-30T12:50:34.737Z,996.67
2018-04-30T12:51:44.064Z,996.68
2018-04-30T12:52:53.520Z,996.75
2018-04-30T12:54:02.450Z,996.67
2018-04-30T12:55:11.910Z,996.67
2018-04-30T12:56:21.650Z,996.59
2018-04-30T12:57:31.092Z,996.74
2018-04-30T12:58:40.345Z,996.68
2018-04-30T12:59:49.803Z,996.68
2018-04-30T13:00:59.534Z,996.65
2018-04-30T13:02:09.280Z,996.67
2018-04-30T13:03:18.555Z,996.67
2018-04-30T13:04:27.767Z,996.68
2018-04-30T13:05:37.266Z,996.74
2018-04-30T13:06:46.714Z,996.74
2018-04-30T13:07:56.271Z,996.75
2018-04-30T13:09:05.502Z,996.7
2018-04-30T13:10:15.253Z,996.79
2018-04-30T13:11:24.175Z,996.86
2018-04-30T13:12:33.633Z,997.03
2018-04-30T13:13:43.659Z,997.18
2018-04-30T13:14:53.407Z,997.14
2018-04-30T13:16:02.332Z,997.3
2018-04-30T13:17:11.760Z,997.36
2018-04-30T13:18:21.203Z,997.49
2018-04-30T13:19:30.915Z,997.4
2018-04-30T13:20:40.323Z,997.48
2018-04-30T13:21:49.744Z,997.49
2018-04-30T13:22:59.443Z,997.44
2018-04-30T13:24:08.610Z,997.44
2018-04-30T13:25:18.054Z,997.42
2018-04-30T13:26:27.230Z,997.29
2018-04-30T13:27:36.682Z,997.37
2018-04-30T13:28:45.834Z,997.31
2018-04-30T13:29:55.236Z,997.35
2018-04-30T13:31:04.656Z,997.3
2018-04-30T13:32:13.323Z,997.32
2018-04-30T13:33:22.753Z,997.25
2018-04-30T13:34:32.169Z,997.27
2018-04-30T13:35:41.349Z,997.23
2018-04-30T13:36:50.266Z,997.23
2018-04-30T13:37:59.695Z,997.2
2018-04-30T13:39:08.872Z,997.28
2018-04-30T13:40:18.065Z,997.3
2018-04-30T13:41:27.243Z,997.23
2018-04-30T13:42:36.427Z,997.23
2018-04-30T13:43:45.632Z,997.24
2018-04-30T13:44:55.157Z,997.32
2018-04-30T13:46:04.074Z,997.32
2018-04-30T13:47:13.502Z,997.34
2018-04-30T13:48:23.465Z,997.32
2018-04-30T13:49:33.149Z,997.41
2018-04-30T13:50:42.303Z,997.32
2018-04-30T13:51:51.496Z,997.24
2018-04-30T13:53:00.402Z,997.27
2018-04-30T13:54:09.818Z,997.27
2018-04-30T13:55:19.247Z,997.35
2018-04-30T13:56:28.416Z,997.34
2018-04-30T13:57:37.913Z,997.33
2018-04-30T13:58:47.070Z,997.27
2018-04-30T13:59:56.506Z,997.24
2018-04-30T14:01:06.178Z,997.27
2018-04-30T14:02:15.622Z,997.27
2018-04-30T14:03:25.644Z,997.28
2018-04-30T14:04:35.061Z,997.28
2018-04-30T14:05:44.504Z,997.28
2018-04-30T14:06:54.174Z,997.32
2018-04-30T14:08:03.083Z,997.35
2018-04-30T14:09:12.763Z,997.32
2018-04-30T14:10:22.191Z,997.34
2018-04-30T14:11:31.621Z,997.34
2018-04-30T14:12:41.034Z,997.34
2018-04-30T14:13:50.197Z,997.32
2018-04-30T14:14:59.898Z,997.33
2018-04-30T14:16:09.584Z,997.35
2018-04-30T14:17:18.743Z,997.38
2018-04-30T14:18:27.901Z,997.38
2018-04-30T14:19:37.849Z,997.36
2018-04-30T14:20:47.003Z,997.43
2018-04-30T14:21:56.444Z,997.36
2018-04-30T14:23:05.875Z,997.36
2018-04-30T14:24:15.300Z,997.31
2018-04-30T14:25:24.469Z,997.41
2018-04-30T14:26:33.908Z,997.35
2018-04-30T14:27:43.073Z,997.33
2018-04-30T14:28:52.499Z,997.34
2018-04-30T14:30:01.406Z,997.32